createdAt,value
2022-10-08T00:01:28.657Z,99.90
2022-10-08T00:03:56.876Z,99.90
2022-10-08T00:06:32.515Z,99.90
2022-10-08T00:09:06.063Z,99.90
2022-10-08T00:11:38.798Z,99.90
2022-10-08T00:14:07.683Z,99.90
2022-10-08T00:16:39.092Z,99.90
2022-10-08T00:19:14.945Z,99.90
2022-10-08T00:21:44.501Z,99.90
2022-10-08T00:24:18.103Z,99.90
2022-10-08T00:26:45.734Z,99.90
2022-10-08T00:29:19.790Z,99.90
2022-10-08T00:31:50.411Z,99.90
2022-10-08T00:34:23.411Z,99.90
2022-10-08T00:36:53.060Z,99.90
2022-10-08T00:39:23.063Z,99.90
2022-10-08T00:41:53.260Z,99.90
2022-10-08T00:44:58.574Z,99.90
2022-10-08T00:47:32.277Z,99.90
2022-10-08T00:50:08.978Z,99.90
2022-10-08T00:52:52.366Z,99.90
2022-10-08T00:55:22.927Z,99.90
2022-10-08T00:57:52.279Z,99.90
2022-10-08T01:00:24.054Z,99.90
2022-10-08T01:02:53.002Z,99.90
2022-10-08T01:05:44.318Z,99.90
2022-10-08T01:08:15.792Z,99.90
2022-10-08T01:10:43.379Z,99.90
2022-10-08T01:13:14.003Z,99.90
2022-10-08T01:15:48.051Z,99.90
2022-10-08T01:18:29.404Z,99.90
2022-10-08T01:21:19.935Z,99.90
2022-10-08T01:24:14.807Z,99.90
2022-10-08T01:27:01.448Z,99.90
2022-10-08T01:29:42.437Z,99.90
2022-10-08T01:32:17.216Z,99.90
2022-10-08T01:34:49.566Z,99.90
2022-10-08T01:37:26.733Z,99.90
2022-10-08T01:39:57.006Z,99.90
2022-10-08T01:42:26.968Z,99.90
2022-10-08T01:45:00.246Z,99.90
2022-10-08T01:47:30.955Z,99.90
2022-10-08T01:50:12.847Z,99.90
2022-10-08T01:52:51.748Z,99.90
2022-10-08T01:55:35.338Z,99.90
2022-10-08T01:58:19.396Z,99.90
2022-10-08T02:00:49.891Z,99.90
2022-10-08T02:03:17.548Z,99.90
2022-10-08T02:05:50.461Z,99.90
2022-10-08T02:08:19.961Z,99.90
2022-10-08T02:10:47.663Z,99.90
2022-10-08T02:13:18.776Z,99.90
2022-10-08T02:16:00.242Z,99.90
2022-10-08T02:18:39.133Z,99.90
2022-10-08T02:21:19.212Z,99.90
2022-10-08T02:24:01.580Z,99.90
2022-10-08T02:26:48.767Z,99.90
2022-10-08T02:29:27.913Z,99.90
2022-10-08T02:32:19.952Z,99.90
2022-10-08T02:34:55.431Z,99.90
2022-10-08T02:37:38.375Z,99.90
2022-10-08T02:40:10.856Z,99.90
2022-10-08T02:42:43.345Z,99.90
2022-10-08T02:45:22.587Z,99.90
2022-10-08T02:47:55.810Z,99.90
2022-10-08T02:50:27.070Z,99.90
2022-10-08T02:52:55.105Z,99.90
2022-10-08T02:55:45.569Z,99.90
2022-10-08T02:58:13.976Z,99.90
2022-10-08T03:00:49.777Z,99.90
2022-10-08T03:03:25.828Z,99.90
2022-10-08T03:05:54.424Z,99.90
2022-10-08T03:08:22.190Z,99.90
2022-10-08T03:10:50.534Z,99.90
2022-10-08T03:13:19.023Z,99.90
2022-10-08T03:15:49.732Z,99.90
2022-10-08T03:18:18.254Z,99.90
2022-10-08T03:20:49.445Z,99.90
2022-10-08T03:23:18.516Z,99.90
2022-10-08T03:25:46.044Z,99.90
2022-10-08T03:28:13.689Z,99.90
2022-10-08T03:30:41.473Z,99.90
2022-10-08T03:33:16.137Z,99.90
2022-10-08T03:35:47.639Z,99.90
2022-10-08T03:38:16.089Z,99.90
2022-10-08T03:40:53.693Z,99.90
2022-10-08T03:43:21.365Z,99.90
2022-10-08T03:45:53.798Z,99.90
2022-10-08T03:48:22.723Z,99.90
2022-10-08T03:50:55.378Z,99.90
2022-10-08T03:53:24.064Z,99.90
2022-10-08T03:55:52.268Z,99.90
2022-10-08T03:58:20.770Z,99.90
2022-10-08T04:01:03.344Z,99.90
2022-10-08T04:03:34.164Z,99.90
2022-10-08T04:06:01.816Z,99.90
2022-10-08T04:08:29.530Z,99.90
2022-10-08T04:10:57.159Z,99.90
2022-10-08T04:13:24.806Z,99.90
2022-10-08T04:15:52.420Z,99.90
2022-10-08T04:18:20.121Z,99.90
2022-10-08T04:20:47.691Z,99.90
2022-10-08T04:23:15.259Z,99.90
2022-10-08T04:25:50.858Z,99.90
2022-10-08T04:28:19.293Z,99.90
2022-10-08T04:30:56.364Z,99.90
2022-10-08T04:33:24.699Z,99.90
2022-10-08T04:35:58.967Z,99.90
2022-10-08T04:38:28.222Z,99.90
2022-10-08T04:41:15.973Z,99.90
2022-10-08T04:43:45.066Z,99.90
2022-10-08T04:46:15.842Z,99.90
2022-10-08T04:48:48.979Z,99.90
2022-10-08T04:51:21.223Z,99.90
2022-10-08T04:53:49.097Z,99.90
2022-10-08T04:56:22.837Z,99.90
2022-10-08T04:58:50.770Z,99.90
2022-10-08T05:01:20.162Z,99.90
2022-10-08T05:03:52.381Z,99.90
2022-10-08T05:06:22.907Z,99.90
2022-10-08T05:08:51.207Z,99.90
2022-10-08T05:11:19.847Z,99.90
2022-10-08T05:13:55.659Z,99.90
2022-10-08T05:16:24.625Z,99.90
2022-10-08T05:18:52.899Z,99.90
2022-10-08T05:21:26.337Z,99.90
2022-10-08T05:23:59.090Z,99.90
2022-10-08T05:26:56.239Z,99.90
2022-10-08T05:29:17.744Z,99.90
2022-10-08T05:31:45.526Z,99.90
2022-10-08T05:34:14.675Z,99.90
2022-10-08T05:36:42.617Z,99.90
2022-10-08T05:39:10.750Z,99.90
2022-10-08T05:41:38.533Z,99.90
2022-10-08T05:44:10.710Z,99.90
2022-10-08T05:46:39.802Z,99.90
2022-10-08T05:49:19.487Z,99.90
2022-10-08T05:51:47.984Z,99.90
2022-10-08T05:54:16.834Z,99.90
2022-10-08T05:56:44.830Z,99.90
2022-10-08T05:59:21.836Z,99.90
2022-10-08T06:01:50.003Z,99.90
2022-10-08T06:04:18.677Z,99.90
2022-10-08T06:06:46.897Z,99.90
2022-10-08T06:09:18.090Z,99.90
2022-10-08T06:11:46.486Z,99.90
2022-10-08T06:14:17.209Z,99.90
2022-10-08T06:16:44.747Z,99.90
2022-10-08T06:19:12.386Z,99.90
2022-10-08T06:21:40.110Z,99.90
2022-10-08T06:24:11.026Z,99.90
2022-10-08T06:26:40.763Z,99.90
2022-10-08T06:29:12.285Z,99.90
2022-10-08T06:31:39.883Z,99.90
2022-10-08T06:34:07.573Z,99.90
2022-10-08T06:36:37.084Z,99.90
2022-10-08T06:39:07.439Z,99.90
2022-10-08T06:41:35.300Z,99.90
2022-10-08T06:44:04.984Z,99.90
2022-10-08T06:46:32.985Z,99.90
2022-10-08T06:49:05.404Z,99.90
2022-10-08T06:51:33.853Z,99.90
2022-10-08T06:54:07.534Z,99.90
2022-10-08T06:56:37.593Z,99.90
2022-10-08T06:59:06.108Z,99.90
2022-10-08T07:01:35.097Z,99.90
2022-10-08T07:04:04.638Z,99.90
2022-10-08T07:06:32.543Z,99.90
2022-10-08T07:09:01.881Z,99.90
2022-10-08T07:11:31.308Z,99.90
2022-10-08T07:13:59.195Z,99.90
2022-10-08T07:16:29.473Z,99.90
2022-10-08T07:18:58.520Z,99.90
2022-10-08T07:21:27.626Z,99.90
2022-10-08T07:23:55.729Z,99.90
2022-10-08T07:26:28.043Z,99.90
2022-10-08T07:28:58.961Z,99.90
2022-10-08T07:31:29.873Z,99.90
2022-10-08T07:33:58.902Z,99.90
2022-10-08T07:36:27.700Z,99.90
2022-10-08T07:38:57.028Z,99.90
2022-10-08T07:41:25.238Z,99.90
2022-10-08T07:43:54.610Z,99.90
2022-10-08T07:46:22.876Z,99.90
2022-10-08T07:48:51.148Z,99.90
2022-10-08T07:51:25.952Z,99.90
2022-10-08T07:53:53.613Z,99.90
2022-10-08T07:56:22.856Z,99.90
2022-10-08T07:59:08.991Z,99.90
2022-10-08T08:01:36.804Z,99.90
2022-10-08T08:04:08.948Z,99.90
2022-10-08T08:06:42.771Z,99.90
2022-10-08T08:09:11.378Z,99.90
2022-10-08T08:11:40.213Z,99.90
2022-10-08T08:14:10.889Z,99.90
2022-10-08T08:16:38.968Z,99.90
2022-10-08T08:19:07.318Z,99.90
2022-10-08T08:21:37.186Z,95.60
2022-10-08T08:24:11.119Z,76.30
2022-10-08T08:26:40.122Z,65.30
2022-10-08T08:29:17.340Z,57.30
2022-10-08T08:31:49.618Z,46.40
2022-10-08T08:34:20.432Z,39.60
2022-10-08T08:36:49.455Z,30.70
2022-10-08T08:39:20.181Z,12.10
2022-10-08T08:41:54.003Z,9.70
2022-10-08T08:44:24.764Z,1.00
2022-10-08T08:47:24.556Z,1.00
2022-10-08T08:50:05.472Z,1.00
2022-10-08T08:52:37.837Z,1.00
2022-10-08T08:55:15.329Z,1.00
2022-10-08T08:57:58.709Z,1.00
2022-10-08T09:00:33.356Z,1.00
2022-10-08T09:03:34.666Z,1.00
2022-10-08T09:06:09.778Z,1.00
2022-10-08T09:08:48.406Z,1.00
2022-10-08T09:11:19.186Z,1.00
2022-10-08T09:13:48.899Z,1.00
2022-10-08T09:16:18.039Z,1.00
2022-10-08T09:18:48.141Z,1.00
2022-10-08T09:21:16.346Z,1.00
2022-10-08T09:23:45.047Z,1.00
2022-10-08T09:26:16.376Z,1.00
2022-10-08T09:28:45.825Z,1.00
2022-10-08T09:31:21.757Z,1.00
2022-10-08T09:33:55.620Z,1.00
2022-10-08T09:37:05.030Z,1.00
2022-10-08T09:39:35.802Z,1.00
2022-10-08T09:42:17.492Z,1.00
2022-10-08T09:44:48.168Z,1.00
2022-10-08T09:47:17.422Z,1.00
2022-10-08T09:49:51.490Z,1.00
2022-10-08T09:52:30.785Z,1.00
2022-10-08T09:55:09.670Z,1.00
2022-10-08T09:57:51.200Z,1.00
2022-10-08T10:00:27.174Z,1.00
2022-10-08T10:02:56.929Z,1.00
2022-10-08T10:05:30.873Z,1.00
2022-10-08T10:07:58.529Z,1.00
2022-10-08T10:10:34.815Z,1.00
2022-10-08T10:13:18.471Z,1.00
2022-10-08T10:15:56.169Z,1.00
2022-10-08T10:18:35.812Z,1.00
2022-10-08T10:21:07.596Z,1.00
2022-10-08T10:24:00.960Z,1.00
2022-10-08T10:26:41.544Z,1.00
2022-10-08T10:29:17.954Z,1.00
2022-10-08T10:32:08.758Z,1.00
2022-10-08T10:34:39.950Z,1.00
2022-10-08T10:37:14.061Z,1.00
2022-10-08T10:40:24.772Z,1.00
2022-10-08T10:43:03.472Z,1.00
2022-10-08T10:45:39.392Z,1.00
2022-10-08T10:48:09.218Z,1.00
2022-10-08T10:51:00.953Z,1.00
2022-10-08T10:53:39.266Z,1.00
2022-10-08T10:56:19.028Z,1.00
2022-10-08T10:59:16.122Z,1.00
2022-10-08T11:02:12.166Z,1.00
2022-10-08T11:05:18.562Z,1.00
2022-10-08T11:08:07.235Z,1.00
2022-10-08T11:10:52.998Z,1.00
2022-10-08T11:13:35.765Z,99.90
2022-10-08T11:16:24.571Z,99.90
2022-10-08T11:18:58.776Z,99.90
2022-10-08T11:21:45.311Z,99.90
2022-10-08T11:24:31.737Z,99.90
2022-10-08T11:27:11.325Z,99.90
2022-10-08T11:30:04.938Z,99.90
2022-10-08T11:32:33.923Z,52.70
2022-10-08T11:35:42.556Z,1.00
2022-10-08T11:38:21.775Z,1.00
2022-10-08T11:41:10.342Z,1.00
2022-10-08T11:43:45.518Z,1.00
2022-10-08T11:46:31.710Z,99.90
2022-10-08T11:49:11.874Z,1.00
2022-10-08T11:51:44.689Z,1.00
2022-10-08T11:54:18.430Z,99.90
2022-10-08T11:57:10.389Z,12.90
2022-10-08T11:59:41.420Z,75.90
2022-10-08T12:02:40.425Z,99.90
2022-10-08T12:05:54.549Z,1.00
2022-10-08T12:08:53.566Z,67.60
2022-10-08T12:11:36.549Z,1.00
2022-10-08T12:14:14.359Z,1.00
2022-10-08T12:16:48.334Z,99.90
2022-10-08T12:19:34.737Z,99.90
2022-10-08T12:22:14.556Z,1.00
2022-10-08T12:24:49.957Z,1.00
2022-10-08T12:27:18.257Z,1.00
2022-10-08T12:29:59.766Z,99.90
2022-10-08T12:32:29.821Z,1.00
2022-10-08T12:34:58.055Z,1.00
2022-10-08T12:37:44.684Z,1.00
2022-10-08T12:40:41.188Z,1.00
2022-10-08T12:43:38.089Z,1.00
2022-10-08T12:46:17.736Z,1.00
2022-10-08T12:48:58.193Z,1.00
2022-10-08T12:51:31.193Z,1.00
2022-10-08T12:53:59.304Z,1.00
2022-10-08T12:56:29.577Z,1.00
2022-10-08T12:59:01.971Z,1.00
2022-10-08T13:01:30.029Z,1.00
2022-10-08T13:04:25.485Z,1.00
2022-10-08T13:06:55.007Z,99.90
2022-10-08T13:09:27.860Z,1.00
2022-10-08T13:12:02.854Z,99.90
2022-10-08T13:14:37.587Z,99.90
2022-10-08T13:17:06.260Z,99.90
2022-10-08T13:19:39.265Z,99.90
2022-10-08T13:22:24.371Z,1.00
2022-10-08T13:24:52.557Z,1.00
2022-10-08T13:27:37.550Z,1.00
2022-10-08T13:30:28.603Z,99.90
2022-10-08T13:33:05.372Z,99.90
2022-10-08T13:35:33.673Z,99.90
2022-10-08T13:38:06.697Z,99.90
2022-10-08T13:40:34.680Z,99.90
2022-10-08T13:43:02.317Z,99.90
2022-10-08T13:45:37.922Z,99.90
2022-10-08T13:48:13.181Z,99.90
2022-10-08T13:50:52.643Z,99.90
2022-10-08T13:53:24.354Z,99.90
2022-10-08T13:55:52.271Z,99.90
2022-10-08T13:58:21.933Z,99.90
2022-10-08T14:00:49.786Z,99.90
2022-10-08T14:03:17.763Z,99.90
2022-10-08T14:05:47.908Z,99.90
2022-10-08T14:08:27.599Z,99.90
2022-10-08T14:10:58.975Z,99.90
2022-10-08T14:13:26.852Z,99.90
2022-10-08T14:15:54.578Z,99.90
2022-10-08T14:18:23.188Z,99.90
2022-10-08T14:20:51.745Z,99.90
2022-10-08T14:23:23.345Z,99.90
2022-10-08T14:25:52.217Z,99.90
2022-10-08T14:28:20.199Z,99.90
2022-10-08T14:30:48.126Z,99.90
2022-10-08T14:33:15.763Z,99.90
2022-10-08T14:35:43.365Z,99.90
2022-10-08T14:38:11.009Z,99.90
2022-10-08T14:40:38.986Z,99.90
2022-10-08T14:43:06.566Z,99.90
2022-10-08T14:45:34.344Z,99.90
2022-10-08T14:48:02.156Z,99.90
2022-10-08T14:50:29.807Z,99.90
2022-10-08T14:52:57.476Z,99.90
2022-10-08T14:55:25.071Z,99.90
2022-10-08T14:57:52.625Z,99.90
2022-10-08T15:00:20.240Z,99.90
2022-10-08T15:02:48.064Z,99.90
2022-10-08T15:05:15.972Z,99.90
2022-10-08T15:07:43.634Z,99.90
2022-10-08T15:10:11.295Z,99.90
2022-10-08T15:12:39.061Z,99.90
2022-10-08T15:15:09.395Z,99.90
2022-10-08T15:17:36.992Z,99.90
2022-10-08T15:20:05.036Z,99.90
2022-10-08T15:22:35.812Z,99.90
2022-10-08T15:25:04.025Z,99.90
2022-10-08T15:27:31.777Z,99.90
2022-10-08T15:29:59.384Z,99.90
2022-10-08T15:32:30.318Z,99.90
2022-10-08T15:35:00.505Z,99.90
2022-10-08T15:37:28.108Z,99.90
2022-10-08T15:39:55.743Z,1.00
2022-10-08T15:42:26.255Z,1.00
2022-10-08T15:44:55.137Z,1.00
2022-10-08T15:47:23.137Z,1.00
2022-10-08T15:49:51.059Z,1.00
2022-10-08T15:52:21.046Z,1.00
2022-10-08T15:54:48.944Z,1.00
2022-10-08T15:57:18.892Z,1.00
2022-10-08T15:59:46.635Z,32.10
2022-10-08T16:02:17.877Z,84.90
2022-10-08T16:04:52.868Z,99.90
2022-10-08T16:07:23.486Z,99.90
2022-10-08T16:09:51.107Z,1.00
2022-10-08T16:12:18.764Z,1.00
2022-10-08T16:14:46.589Z,40.00
2022-10-08T16:17:14.269Z,1.00
2022-10-08T16:20:16.458Z,1.00
2022-10-08T16:22:40.265Z,1.00
2022-10-08T16:25:08.216Z,99.90
2022-10-08T16:27:35.901Z,99.90
2022-10-08T16:30:04.342Z,99.90
2022-10-08T16:32:32.436Z,1.00
2022-10-08T16:35:02.321Z,1.00
2022-10-08T16:37:30.553Z,99.90
2022-10-08T16:40:04.675Z,99.90
2022-10-08T16:42:32.494Z,1.00
2022-10-08T16:45:00.233Z,99.90
2022-10-08T16:47:27.878Z,99.90
2022-10-08T16:49:55.587Z,1.00
2022-10-08T16:52:23.278Z,99.90
2022-10-08T16:54:54.562Z,99.90
2022-10-08T16:57:22.435Z,1.00
2022-10-08T16:59:50.126Z,99.90
2022-10-08T17:02:19.021Z,1.00
2022-10-08T17:04:49.179Z,1.00
2022-10-08T17:07:16.991Z,1.00
2022-10-08T17:09:44.672Z,94.40
2022-10-08T17:12:12.331Z,17.60
2022-10-08T17:14:39.956Z,99.90
2022-10-08T17:17:07.606Z,99.90
2022-10-08T17:19:37.426Z,99.90
2022-10-08T17:22:05.260Z,99.90
2022-10-08T17:24:40.165Z,99.90
2022-10-08T17:27:11.823Z,1.00
2022-10-08T17:29:40.123Z,1.00
2022-10-08T17:32:07.938Z,1.00
2022-10-08T17:34:35.586Z,1.00
2022-10-08T17:37:06.105Z,1.00
2022-10-08T17:39:36.691Z,1.00
2022-10-08T17:42:07.207Z,1.00
2022-10-08T17:44:35.360Z,1.00
2022-10-08T17:47:03.114Z,1.00
2022-10-08T17:49:32.737Z,1.00
2022-10-08T17:52:00.807Z,1.00
2022-10-08T17:54:28.368Z,1.00
2022-10-08T17:56:56.025Z,1.00
2022-10-08T17:59:23.696Z,1.00
2022-10-08T18:01:53.500Z,1.00
2022-10-08T18:04:21.294Z,1.00
2022-10-08T18:06:49.116Z,1.00
2022-10-08T18:09:19.830Z,1.00
2022-10-08T18:11:53.095Z,1.00
2022-10-08T18:14:21.974Z,1.00
2022-10-08T18:16:50.392Z,1.00
2022-10-08T18:19:18.448Z,1.00
2022-10-08T18:21:46.244Z,1.00
2022-10-08T18:24:14.493Z,1.00
2022-10-08T18:26:42.428Z,1.00
2022-10-08T18:29:12.561Z,1.00
2022-10-08T18:31:42.683Z,1.00
2022-10-08T18:34:13.961Z,1.00
2022-10-08T18:36:52.846Z,1.00
2022-10-08T18:39:28.484Z,1.00
2022-10-08T18:41:56.665Z,1.00
2022-10-08T18:44:35.428Z,1.00
2022-10-08T18:47:05.507Z,1.00
2022-10-08T18:49:36.311Z,1.00
2022-10-08T18:52:10.001Z,1.00
2022-10-08T18:54:45.847Z,1.00
2022-10-08T18:57:17.648Z,1.00
2022-10-08T18:59:51.522Z,1.00
2022-10-08T19:02:19.515Z,1.00
2022-10-08T19:04:49.393Z,1.00
2022-10-08T19:07:17.189Z,1.00
2022-10-08T19:09:45.010Z,1.00
2022-10-08T19:12:12.665Z,1.00
2022-10-08T19:14:40.402Z,1.00
2022-10-08T19:17:08.069Z,1.00
2022-10-08T19:19:35.618Z,1.00
2022-10-08T19:22:03.326Z,1.00
2022-10-08T19:24:31.127Z,2.60
2022-10-08T19:26:58.882Z,8.90
2022-10-08T19:29:29.479Z,16.90
2022-10-08T19:31:59.777Z,18.90
2022-10-08T19:34:27.937Z,20.60
2022-10-08T19:36:55.933Z,21.40
2022-10-08T19:39:26.072Z,20.70
2022-10-08T19:41:54.215Z,29.70
2022-10-08T19:44:21.945Z,31.60
2022-10-08T19:46:52.714Z,36.50
2022-10-08T19:49:21.684Z,40.80
2022-10-08T19:51:49.353Z,40.20
2022-10-08T19:54:17.406Z,53.00
2022-10-08T19:56:45.038Z,61.40
2022-10-08T19:59:13.204Z,57.70
2022-10-08T20:01:41.833Z,58.50
2022-10-08T20:04:10.349Z,60.10
2022-10-08T20:06:41.077Z,63.60
2022-10-08T20:09:11.968Z,74.00
2022-10-08T20:11:41.027Z,72.10
2022-10-08T20:14:09.070Z,70.70
2022-10-08T20:16:39.973Z,63.30
2022-10-08T20:19:20.012Z,69.00
2022-10-08T20:21:49.051Z,79.50
2022-10-08T20:24:18.288Z,79.90
2022-10-08T20:26:46.284Z,81.80
2022-10-08T20:29:29.987Z,86.00
2022-10-08T20:31:59.712Z,89.50
2022-10-08T20:34:30.986Z,93.50
2022-10-08T20:37:01.425Z,96.30
2022-10-08T20:39:29.398Z,98.40
2022-10-08T20:41:58.248Z,99.90
2022-10-08T20:44:25.880Z,99.90
2022-10-08T20:46:54.114Z,99.90
2022-10-08T20:49:21.775Z,99.90
2022-10-08T20:51:52.332Z,99.90
2022-10-08T20:54:19.935Z,99.90
2022-10-08T20:56:47.535Z,99.90
2022-10-08T20:59:17.836Z,99.90
2022-10-08T21:01:45.607Z,99.90
2022-10-08T21:04:13.409Z,99.90
2022-10-08T21:06:45.377Z,99.90
2022-10-08T21:09:14.304Z,99.90
2022-10-08T21:11:42.759Z,99.90
2022-10-08T21:14:10.655Z,99.90
2022-10-08T21:16:39.842Z,99.90
2022-10-08T21:19:15.843Z,99.90
2022-10-08T21:21:43.485Z,99.90
2022-10-08T21:24:11.325Z,99.90
2022-10-08T21:26:41.411Z,99.90
2022-10-08T21:29:11.558Z,99.90
2022-10-08T21:31:41.323Z,99.90
2022-10-08T21:34:11.579Z,99.90
2022-10-08T21:36:40.605Z,99.90
2022-10-08T21:39:14.128Z,99.90
2022-10-08T21:41:41.716Z,99.90
2022-10-08T21:44:09.536Z,99.90
2022-10-08T21:46:40.552Z,99.90
2022-10-08T21:49:12.586Z,99.90
2022-10-08T21:51:40.316Z,99.90
2022-10-08T21:54:08.825Z,99.90
2022-10-08T21:56:38.344Z,99.90
2022-10-08T21:59:08.011Z,99.90
2022-10-08T22:01:40.247Z,99.90
2022-10-08T22:04:13.540Z,99.90
2022-10-08T22:06:45.560Z,99.90
2022-10-08T22:09:18.589Z,99.90
2022-10-08T22:11:46.327Z,99.90
2022-10-08T22:14:14.888Z,99.90
2022-10-08T22:16:42.995Z,99.90
2022-10-08T22:19:10.886Z,99.90
2022-10-08T22:21:38.666Z,99.90
2022-10-08T22:24:06.487Z,99.90
2022-10-08T22:26:40.285Z,99.90
2022-10-08T22:29:14.918Z,99.90
2022-10-08T22:31:42.810Z,99.90
2022-10-08T22:34:10.666Z,99.90
2022-10-08T22:36:41.130Z,99.90
2022-10-08T22:39:08.978Z,99.90
2022-10-08T22:41:37.070Z,99.90
2022-10-08T22:44:05.218Z,99.90
2022-10-08T22:46:38.029Z,99.90
2022-10-08T22:49:08.655Z,99.90
2022-10-08T22:51:36.711Z,99.90
2022-10-08T22:54:07.791Z,99.90
2022-10-08T22:56:35.473Z,99.90
2022-10-08T22:59:03.378Z,99.90
2022-10-08T23:01:31.436Z,99.90
2022-10-08T23:03:59.090Z,99.90
2022-10-08T23:06:29.521Z,99.90
2022-10-08T23:08:59.189Z,99.90
2022-10-08T23:11:28.363Z,99.90
2022-10-08T23:13:57.723Z,99.90
2022-10-08T23:16:27.566Z,99.90
2022-10-08T23:18:58.199Z,99.90
2022-10-08T23:21:26.826Z,99.90
2022-10-08T23:23:55.066Z,99.90
2022-10-08T23:26:24.154Z,99.90
2022-10-08T23:28:55.987Z,99.90
2022-10-08T23:31:26.662Z,99.90
2022-10-08T23:33:55.674Z,99.90
2022-10-08T23:36:25.724Z,99.90
2022-10-08T23:38:54.397Z,99.90
2022-10-08T23:41:23.007Z,99.90
2022-10-08T23:43:54.456Z,99.90
2022-10-08T23:46:24.359Z,99.90
2022-10-08T23:48:52.651Z,99.90
2022-10-08T23:51:21.736Z,99.90
2022-10-08T23:53:51.076Z,99.90
2022-10-08T23:56:19.925Z,99.90
2022-10-08T23:58:51.083Z,99.90
